Wetterdaten: Woche 24.06.13 - 30.06.13 (KW26)
Datum Zeit Temperatur Luftfeuchte Luftdruck Niederschlag Windrichtung Sonnenschein Solar Wind
24.06.2013 00:00 11,0 C 91 % 1016,8 hPa 0,0 l/m SW 0,00 h 0 W/m 6,7 km/h (2 Bft)
24.06.2013 01:00 10,9 C 88 % 1017,1 hPa 0,0 l/m W-SW 0,00 h 0 W/m 3,5 km/h (1 Bft)
24.06.2013 02:00 10,8 C 91 % 1016,8 hPa 0,0 l/m SW 0,00 h 0 W/m 2,4 km/h (1 Bft)
24.06.2013 03:00 10,6 C 88 % 1016,6 hPa 0,0 l/m W 0,00 h 0 W/m 4,0 km/h (1 Bft)
24.06.2013 04:00 10,5 C 86 % 1016,5 hPa 0,0 l/m W 0,00 h 0 W/m 3,2 km/h (1 Bft)
24.06.2013 05:00 10,2 C 93 % 1016,5 hPa 0,0 l/m W 0,00 h 8 W/m 6,2 km/h (2 Bft)
24.06.2013 06:00 10,4 C 91 % 1016,6 hPa 0,0 l/m N 0,00 h 27 W/m 2,1 km/h (1 Bft)
24.06.2013 07:00 11,0 C 90 % 1016,8 hPa 0,0 l/m N 0,00 h 65 W/m 1,6 km/h (1 Bft)
24.06.2013 08:00 12,0 C 88 % 1017,1 hPa 0,0 l/m W 0,00 h 136 W/m 4,8 km/h (1 Bft)
24.06.2013 09:00 13,4 C 79 % 1017,2 hPa 0,0 l/m W 0,17 h 234 W/m 10,6 km/h (2 Bft)
24.06.2013 10:00 13,3 C 81 % 1017,3 hPa 0,0 l/m W-NW 0,00 h 170 W/m 10,3 km/h (2 Bft)
24.06.2013 11:00 14,0 C 77 % 1017,5 hPa 0,6 l/m N-NW 0,00 h 190 W/m 13,6 km/h (3 Bft)
24.06.2013 12:00 12,5 C 89 % 1018,1 hPa 1,2 l/m W-NW 0,00 h 129 W/m 9,3 km/h (2 Bft)
24.06.2013 13:00 13,0 C 84 % 1018,5 hPa 0,0 l/m N 0,08 h 202 W/m 10,6 km/h (2 Bft)
24.06.2013 14:00 14,3 C 77 % 1018,7 hPa 0,0 l/m NW 0,00 h 252 W/m 12,6 km/h (3 Bft)
24.06.2013 15:00 14,3 C 82 % 1018,7 hPa 0,0 l/m W-SW 0,25 h 320 W/m 12,1 km/h (2 Bft)
24.06.2013 16:00 15,7 C 70 % 1018,8 hPa 0,0 l/m W-NW 0,33 h 365 W/m 10,7 km/h (2 Bft)
24.06.2013 17:00 13,8 C 77 % 1019,2 hPa 0,0 l/m N 0,00 h 131 W/m 11,7 km/h (2 Bft)
24.06.2013 18:00 15,3 C 73 % 1019,2 hPa 0,0 l/m N-NO 0,42 h 266 W/m 11,2 km/h (2 Bft)
24.06.2013 19:00 14,5 C 71 % 1019,6 hPa 0,0 l/m N 0,50 h 204 W/m 14,5 km/h (3 Bft)
24.06.2013 20:00 13,5 C 79 % 1020,2 hPa 0,0 l/m SW 0,25 h 51 W/m 6,5 km/h (2 Bft)
24.06.2013 21:00 12,4 C 81 % 1021,1 hPa 0,0 l/m W-NW 0,00 h 7 W/m 10,1 km/h (2 Bft)
24.06.2013 22:00 11,4 C 83 % 1021,5 hPa 0,0 l/m NW 0,00 h 0 W/m 7,4 km/h (2 Bft)
24.06.2013 23:00 10,7 C 87 % 1021,7 hPa 0,0 l/m N 0,00 h 0 W/m 2,7 km/h (1 Bft)
25.06.2013 00:00 10,9 C 88 % 1021,8 hPa 0,0 l/m N 0,00 h 0 W/m 1,1 km/h (0 Bft)
25.06.2013 01:00 10,6 C 91 % 1021,6 hPa 0,0 l/m NW 0,00 h 0 W/m 5,1 km/h (1 Bft)
25.06.2013 02:00 10,6 C 87 % 1021,4 hPa 0,0 l/m N 0,00 h 0 W/m 2,4 km/h (1 Bft)
25.06.2013 03:00 10,3 C 90 % 1021,5 hPa 0,0 l/m N 0,00 h 0 W/m 0,9 km/h (0 Bft)
25.06.2013 04:00 10,4 C 89 % 1021,6 hPa 0,0 l/m NW 0,00 h 0 W/m 5,5 km/h (1 Bft)
25.06.2013 05:00 10,3 C 89 % 1021,5 hPa 0,0 l/m NW 0,00 h 6 W/m 4,9 km/h (1 Bft)
25.06.2013 06:00 10,3 C 90 % 1021,6 hPa 0,0 l/m NW 0,00 h 16 W/m 5,6 km/h (1 Bft)
25.06.2013 07:00 10,8 C 88 % 1021,8 hPa 0,0 l/m NW 0,33 h 153 W/m 9,4 km/h (2 Bft)
25.06.2013 08:00 12,0 C 81 % 1021,9 hPa 0,0 l/m NW 0,50 h 289 W/m 13,0 km/h (3 Bft)
25.06.2013 09:00 12,3 C 77 % 1022,0 hPa 0,0 l/m NW 0,17 h 186 W/m 13,4 km/h (3 Bft)
25.06.2013 10:00 12,6 C 75 % 1022,1 hPa 0,0 l/m NW 0,00 h 169 W/m 9,9 km/h (2 Bft)
25.06.2013 11:00 13,2 C 72 % 1022,1 hPa 0,0 l/m W-NW 0,00 h 214 W/m 9,5 km/h (2 Bft)
25.06.2013 12:00 14,2 C 65 % 1022,0 hPa 0,0 l/m NW 0,17 h 461 W/m 10,9 km/h (2 Bft)
25.06.2013 13:00 14,2 C 66 % 1021,9 hPa 0,0 l/m N-NO 0,00 h 146 W/m 13,4 km/h (3 Bft)
25.06.2013 14:00 14,4 C 63 % 1022,0 hPa 0,0 l/m W-NW 0,08 h 311 W/m 11,3 km/h (2 Bft)
25.06.2013 15:00 13,1 C 81 % 1022,5 hPa 0,0 l/m SW 0,00 h 93 W/m 16,4 km/h (3 Bft)
25.06.2013 16:00 11,9 C 86 % 1023,0 hPa 1,4 l/m SW 0,00 h 58 W/m 14,6 km/h (3 Bft)
25.06.2013 17:00 11,6 C 93 % 1023,2 hPa 0,2 l/m SW 0,00 h 151 W/m 10,1 km/h (2 Bft)
25.06.2013 18:00 12,8 C 82 % 1023,2 hPa 0,0 l/m N-NO 0,08 h 166 W/m 10,2 km/h (2 Bft)
25.06.2013 19:00 12,2 C 87 % 1023,4 hPa 0,0 l/m S-SW 0,00 h 34 W/m 7,2 km/h (2 Bft)
25.06.2013 20:00 11,5 C 88 % 1023,7 hPa 0,0 l/m SW 0,00 h 11 W/m 3,3 km/h (1 Bft)
25.06.2013 21:00 11,0 C 89 % 1024,1 hPa 0,0 l/m N 0,00 h 5 W/m 3,6 km/h (1 Bft)
25.06.2013 22:00 10,7 C 87 % 1024,6 hPa 0,0 l/m N 0,00 h 0 W/m 8,2 km/h (2 Bft)
25.06.2013 23:00 9,8 C 90 % 1024,9 hPa 0,0 l/m N-NW 0,00 h 0 W/m 6,4 km/h (2 Bft)
26.06.2013 00:00 9,6 C 92 % 1025,0 hPa 0,2 l/m N-NW 0,00 h 0 W/m 5,3 km/h (1 Bft)
26.06.2013 01:00 9,5 C 93 % 1024,9 hPa 0,0 l/m N-NW 0,00 h 0 W/m 3,1 km/h (1 Bft)
26.06.2013 02:00 9,5 C 92 % 1024,8 hPa 0,0 l/m N 0,00 h 0 W/m 2,4 km/h (1 Bft)
26.06.2013 03:00 9,4 C 92 % 1024,7 hPa 0,0 l/m N 0,00 h 0 W/m 2,4 km/h (1 Bft)
26.06.2013 04:00 9,0 C 93 % 1024,7 hPa 0,0 l/m N 0,00 h 0 W/m 2,9 km/h (1 Bft)
26.06.2013 05:00 8,1 C 95 % 1024,7 hPa 0,0 l/m N 0,00 h 7 W/m 0,0 km/h (0 Bft)
26.06.2013 06:00 8,0 C 96 % 1025,0 hPa 0,0 l/m N 0,00 h 40 W/m 0,7 km/h (0 Bft)
26.06.2013 07:00 9,4 C 93 % 1025,4 hPa 0,0 l/m N-NW 0,50 h 174 W/m 7,0 km/h (2 Bft)
26.06.2013 08:00 11,1 C 82 % 1025,7 hPa 0,0 l/m N 0,75 h 321 W/m 8,0 km/h (2 Bft)
26.06.2013 09:00 11,8 C 75 % 1025,9 hPa 0,0 l/m N-NO 0,50 h 375 W/m 12,6 km/h (3 Bft)
26.06.2013 10:00 12,2 C 71 % 1026,2 hPa 0,0 l/m N-NO 0,08 h 323 W/m 14,4 km/h (3 Bft)
26.06.2013 11:00 13,2 C 63 % 1026,3 hPa 0,0 l/m N 0,42 h 520 W/m 15,6 km/h (3 Bft)
26.06.2013 12:00 13,4 C 60 % 1026,2 hPa 0,0 l/m W-NW 0,25 h 403 W/m 13,2 km/h (3 Bft)
26.06.2013 13:00 13,2 C 63 % 1026,3 hPa 0,0 l/m NW 0,25 h 380 W/m 11,8 km/h (2 Bft)
26.06.2013 14:00 14,7 C 56 % 1026,0 hPa 0,0 l/m NW 0,83 h 775 W/m 12,5 km/h (3 Bft)
26.06.2013 15:00 15,5 C 53 % 1025,6 hPa 0,0 l/m N 0,92 h 668 W/m 14,1 km/h (3 Bft)
26.06.2013 16:00 15,6 C 51 % 1025,4 hPa 0,0 l/m N 0,58 h 443 W/m 11,8 km/h (2 Bft)
26.06.2013 17:00 15,2 C 52 % 1025,3 hPa 0,0 l/m N-NO 0,33 h 300 W/m 12,1 km/h (2 Bft)
26.06.2013 18:00 14,7 C 54 % 1025,2 hPa 0,0 l/m NO 0,17 h 156 W/m 9,1 km/h (2 Bft)
26.06.2013 19:00 14,2 C 56 % 1025,3 hPa 0,0 l/m NO 0,00 h 66 W/m 8,0 km/h (2 Bft)
26.06.2013 20:00 13,4 C 61 % 1025,4 hPa 0,0 l/m NO 0,00 h 20 W/m 6,3 km/h (2 Bft)
26.06.2013 21:00 12,7 C 65 % 1025,5 hPa 0,0 l/m NO 0,00 h 9 W/m 4,7 km/h (1 Bft)
26.06.2013 22:00 11,9 C 68 % 1025,9 hPa 0,0 l/m NO 0,00 h 0 W/m 5,1 km/h (1 Bft)
26.06.2013 23:00 11,2 C 72 % 1025,9 hPa 0,0 l/m N 0,00 h 0 W/m 0,8 km/h (0 Bft)
27.06.2013 00:00 9,8 C 81 % 1025,5 hPa 0,0 l/m N 0,00 h 0 W/m 0,1 km/h (0 Bft)
27.06.2013 01:00 8,8 C 86 % 1025,0 hPa 0,0 l/m N 0,00 h 0 W/m 0,4 km/h (0 Bft)
27.06.2013 02:00 8,9 C 87 % 1024,3 hPa 0,0 l/m N 0,00 h 0 W/m 0,1 km/h (0 Bft)
27.06.2013 03:00 9,2 C 87 % 1023,6 hPa 0,0 l/m N 0,00 h 0 W/m 0,3 km/h (0 Bft)
27.06.2013 04:00 9,2 C 87 % 1023,1 hPa 0,0 l/m NO 0,00 h 0 W/m 1,6 km/h (1 Bft)
27.06.2013 05:00 8,9 C 88 % 1022,8 hPa 0,0 l/m N 0,00 h 7 W/m 1,5 km/h (1 Bft)
27.06.2013 06:00 8,9 C 89 % 1022,6 hPa 0,0 l/m N-NW 0,00 h 23 W/m 4,9 km/h (1 Bft)
27.06.2013 07:00 9,7 C 85 % 1022,4 hPa 0,0 l/m N 0,00 h 78 W/m 3,5 km/h (1 Bft)
27.06.2013 08:00 10,9 C 81 % 1022,5 hPa 0,0 l/m N-NW 0,00 h 96 W/m 3,6 km/h (1 Bft)
27.06.2013 09:00 12,2 C 74 % 1022,4 hPa 0,0 l/m N-NW 0,00 h 230 W/m 4,5 km/h (1 Bft)
27.06.2013 10:00 12,8 C 66 % 1022,2 hPa 0,0 l/m W-NW 0,00 h 217 W/m 7,8 km/h (2 Bft)
27.06.2013 11:00 13,0 C 67 % 1021,9 hPa 0,0 l/m W-NW 0,00 h 179 W/m 5,3 km/h (1 Bft)
27.06.2013 12:00 13,1 C 66 % 1021,9 hPa 0,4 l/m SW 0,08 h 199 W/m 10,3 km/h (2 Bft)
27.06.2013 13:00 9,3 C 91 % 1022,6 hPa 2,6 l/m N-NW 0,00 h 104 W/m 11,9 km/h (2 Bft)
27.06.2013 14:00 10,7 C 89 % 1022,5 hPa 0,0 l/m N 0,00 h 295 W/m 6,0 km/h (2 Bft)
27.06.2013 15:00 11,9 C 82 % 1021,8 hPa 0,2 l/m O-SO 0,00 h 261 W/m 6,8 km/h (2 Bft)
27.06.2013 16:00 11,2 C 88 % 1021,7 hPa 1,2 l/m SO 0,00 h 123 W/m 5,2 km/h (1 Bft)
27.06.2013 17:00 11,6 C 91 % 1021,6 hPa 0,0 l/m S-SW 0,00 h 183 W/m 4,9 km/h (1 Bft)
27.06.2013 18:00 11,7 C 88 % 1021,2 hPa 0,0 l/m S-SW 0,00 h 93 W/m 6,3 km/h (2 Bft)
27.06.2013 19:00 11,3 C 89 % 1021,0 hPa 0,0 l/m SW 0,00 h 77 W/m 8,0 km/h (2 Bft)
27.06.2013 20:00 10,7 C 90 % 1021,0 hPa 0,2 l/m S-SW 0,08 h 45 W/m 3,3 km/h (1 Bft)
27.06.2013 21:00 9,5 C 94 % 1021,2 hPa 0,0 l/m N 0,00 h 8 W/m 1,6 km/h (1 Bft)
27.06.2013 22:00 9,7 C 94 % 1021,5 hPa 0,2 l/m W-SW 0,00 h 0 W/m 8,4 km/h (2 Bft)
27.06.2013 23:00 9,6 C 94 % 1021,3 hPa 0,2 l/m SW 0,00 h 0 W/m 8,3 km/h (2 Bft)
28.06.2013 00:00 9,1 C 96 % 1021,5 hPa 0,0 l/m N 0,00 h 0 W/m 2,0 km/h (1 Bft)
28.06.2013 01:00 9,0 C 97 % 1021,2 hPa 0,0 l/m N 0,00 h 0 W/m 1,2 km/h (1 Bft)
28.06.2013 02:00 8,6 C 97 % 1020,8 hPa 0,0 l/m N 0,00 h 0 W/m 2,4 km/h (1 Bft)
28.06.2013 03:00 8,1 C 98 % 1020,5 hPa 0,0 l/m N 0,00 h 0 W/m 1,1 km/h (0 Bft)
28.06.2013 04:00 8,1 C 98 % 1020,3 hPa 0,0 l/m N 0,00 h 0 W/m 1,9 km/h (1 Bft)
28.06.2013 05:00 7,7 C 98 % 1020,1 hPa 0,0 l/m N 0,00 h 9 W/m 0,9 km/h (0 Bft)
28.06.2013 06:00 7,5 C 98 % 1020,3 hPa 0,0 l/m N 0,00 h 32 W/m 0,1 km/h (0 Bft)
28.06.2013 07:00 8,7 C 98 % 1020,5 hPa 0,0 l/m N 0,42 h 162 W/m 1,3 km/h (1 Bft)
28.06.2013 08:00 10,5 C 94 % 1020,4 hPa 0,0 l/m SW 0,25 h 235 W/m 4,2 km/h (1 Bft)
28.06.2013 09:00 11,5 C 88 % 1020,3 hPa 0,0 l/m S-SO 0,00 h 178 W/m 8,8 km/h (2 Bft)
28.06.2013 10:00 11,7 C 87 % 1020,3 hPa 0,0 l/m SW 0,00 h 243 W/m 11,1 km/h (2 Bft)
28.06.2013 11:00 13,2 C 79 % 1019,9 hPa 0,0 l/m W-SW 0,50 h 459 W/m 13,2 km/h (3 Bft)
28.06.2013 12:00 14,6 C 69 % 1019,7 hPa 0,0 l/m W-SW 0,58 h 616 W/m 14,6 km/h (3 Bft)
28.06.2013 13:00 11,8 C 78 % 1020,0 hPa 0,0 l/m N 0,00 h 101 W/m 13,5 km/h (3 Bft)
28.06.2013 14:00 12,5 C 80 % 1019,9 hPa 0,0 l/m W-NW 0,00 h 183 W/m 9,4 km/h (2 Bft)
28.06.2013 15:00 13,9 C 67 % 1019,6 hPa 0,0 l/m W-NW 0,00 h 216 W/m 6,7 km/h (2 Bft)
28.06.2013 16:00 13,8 C 68 % 1019,6 hPa 0,0 l/m W 0,00 h 165 W/m 5,8 km/h (1 Bft)
28.06.2013 17:00 15,6 C 64 % 1019,4 hPa 0,0 l/m SW 0,83 h 574 W/m 8,9 km/h (2 Bft)
28.06.2013 18:00 15,2 C 66 % 1019,2 hPa 0,0 l/m W 0,25 h 164 W/m 5,9 km/h (2 Bft)
28.06.2013 19:00 14,1 C 72 % 1019,4 hPa 0,0 l/m W 0,00 h 38 W/m 4,8 km/h (1 Bft)
28.06.2013 20:00 13,2 C 75 % 1019,7 hPa 0,0 l/m W-NW 0,00 h 12 W/m 4,3 km/h (1 Bft)
28.06.2013 21:00 12,4 C 81 % 1020,2 hPa 0,0 l/m N 0,00 h 0 W/m 0,1 km/h (0 Bft)
28.06.2013 22:00 11,7 C 87 % 1020,5 hPa 0,0 l/m N 0,00 h 0 W/m 0,0 km/h (0 Bft)
28.06.2013 23:00 11,4 C 88 % 1020,6 hPa 0,0 l/m N 0,00 h 0 W/m 0,0 km/h (0 Bft)
29.06.2013 00:00 11,2 C 90 % 1020,5 hPa 0,0 l/m N 0,00 h 0 W/m 0,0 km/h (0 Bft)
29.06.2013 01:00 10,7 C 92 % 1020,1 hPa 0,0 l/m N 0,00 h 0 W/m 0,1 km/h (0 Bft)
29.06.2013 02:00 9,5 C 94 % 1019,7 hPa 0,0 l/m N 0,00 h 0 W/m 0,3 km/h (0 Bft)
29.06.2013 03:00 8,9 C 95 % 1019,5 hPa 0,0 l/m N 0,00 h 0 W/m 1,2 km/h (1 Bft)
29.06.2013 04:00 9,0 C 96 % 1019,2 hPa 0,0 l/m W 0,00 h 0 W/m 7,8 km/h (2 Bft)
29.06.2013 05:00 9,3 C 95 % 1019,0 hPa 0,0 l/m SW 0,00 h 6 W/m 9,9 km/h (2 Bft)
29.06.2013 06:00 9,5 C 96 % 1018,9 hPa 0,2 l/m SW 0,00 h 13 W/m 9,8 km/h (2 Bft)
29.06.2013 07:00 9,7 C 97 % 1018,8 hPa 0,8 l/m SW 0,00 h 25 W/m 9,5 km/h (2 Bft)
29.06.2013 08:00 10,1 C 98 % 1018,6 hPa 0,6 l/m S-SW 0,00 h 47 W/m 11,3 km/h (2 Bft)
29.06.2013 09:00 10,7 C 98 % 1018,4 hPa 0,6 l/m S-SW 0,00 h 100 W/m 15,7 km/h (3 Bft)
29.06.2013 10:00 11,2 C 97 % 1018,1 hPa 1,0 l/m SW 0,00 h 109 W/m 15,3 km/h (3 Bft)
29.06.2013 11:00 11,5 C 97 % 1017,6 hPa 2,4 l/m W-SW 0,00 h 129 W/m 19,3 km/h (3 Bft)
29.06.2013 12:00 11,3 C 97 % 1017,4 hPa 0,4 l/m W-SW 0,00 h 79 W/m 20,8 km/h (4 Bft)
29.06.2013 13:00 11,5 C 97 % 1017,3 hPa 1,2 l/m W-SW 0,00 h 102 W/m 21,2 km/h (4 Bft)
29.06.2013 14:00 12,0 C 97 % 1017,3 hPa 1,0 l/m W-SW 0,00 h 129 W/m 22,1 km/h (4 Bft)
29.06.2013 15:00 12,7 C 97 % 1017,3 hPa 0,2 l/m W-SW 0,00 h 176 W/m 23,9 km/h (4 Bft)
29.06.2013 16:00 13,7 C 96 % 1017,5 hPa 0,0 l/m W-SW 0,17 h 284 W/m 18,8 km/h (3 Bft)
29.06.2013 17:00 14,6 C 93 % 1017,5 hPa 0,4 l/m W-SW 0,17 h 195 W/m 22,1 km/h (4 Bft)
29.06.2013 18:00 13,3 C 96 % 1018,4 hPa 9,4 l/m N 0,00 h 24 W/m 9,2 km/h (2 Bft)
29.06.2013 19:00 12,8 C 97 % 1018,9 hPa 1,0 l/m W-NW 0,00 h 30 W/m 6,0 km/h (2 Bft)
29.06.2013 20:00 12,5 C 97 % 1019,7 hPa 0,0 l/m W-NW 0,00 h 9 W/m 4,7 km/h (1 Bft)
29.06.2013 21:00 12,2 C 98 % 1020,3 hPa 0,2 l/m W-NW 0,00 h 0 W/m 4,4 km/h (1 Bft)
29.06.2013 22:00 11,7 C 98 % 1021,2 hPa 0,0 l/m W-NW 0,00 h 0 W/m 3,6 km/h (1 Bft)
29.06.2013 23:00 11,6 C 99 % 1021,7 hPa 0,0 l/m N 0,00 h 0 W/m 1,7 km/h (1 Bft)
30.06.2013 00:00 11,4 C 99 % 1022,0 hPa 0,0 l/m W-NW 0,00 h 0 W/m 2,8 km/h (1 Bft)
30.06.2013 01:00 11,2 C 99 % 1022,0 hPa 0,0 l/m N 0,00 h 0 W/m 0,8 km/h (0 Bft)
30.06.2013 02:00 11,2 C 99 % 1022,1 hPa 0,0 l/m N 0,00 h 0 W/m 0,0 km/h (0 Bft)
30.06.2013 03:00 11,1 C 99 % 1022,1 hPa 0,0 l/m N 0,00 h 0 W/m 0,0 km/h (0 Bft)
30.06.2013 04:00 10,6 C 99 % 1021,9 hPa 0,0 l/m N 0,00 h 0 W/m 1,6 km/h (1 Bft)
30.06.2013 05:00 10,4 C 99 % 1022,1 hPa 0,0 l/m N 0,00 h 8 W/m 0,9 km/h (0 Bft)
30.06.2013 06:00 10,4 C 99 % 1022,4 hPa 0,0 l/m N 0,00 h 24 W/m 0,3 km/h (0 Bft)
30.06.2013 07:00 10,8 C 98 % 1022,6 hPa 0,0 l/m W-NW 0,00 h 64 W/m 1,7 km/h (1 Bft)
30.06.2013 08:00 11,4 C 95 % 1022,9 hPa 0,0 l/m N 0,00 h 87 W/m 1,3 km/h (1 Bft)
30.06.2013 09:00 12,3 C 91 % 1022,8 hPa 0,0 l/m N 0,00 h 227 W/m 0,9 km/h (0 Bft)
30.06.2013 10:00 14,2 C 85 % 1022,5 hPa 0,0 l/m W-NW 0,67 h 555 W/m 4,4 km/h (1 Bft)
30.06.2013 11:00 15,4 C 74 % 1022,5 hPa 0,0 l/m W-NW 0,50 h 541 W/m 8,8 km/h (2 Bft)
30.06.2013 12:00 16,6 C 68 % 1022,3 hPa 0,0 l/m W-SW 0,50 h 616 W/m 11,4 km/h (2 Bft)
30.06.2013 13:00 16,8 C 67 % 1021,9 hPa 0,0 l/m W-NW 0,17 h 352 W/m 6,4 km/h (2 Bft)
30.06.2013 14:00 17,5 C 64 % 1021,4 hPa 0,0 l/m W 0,25 h 429 W/m 8,6 km/h (2 Bft)
30.06.2013 15:00 19,0 C 58 % 1020,9 hPa 0,0 l/m SW 0,67 h 644 W/m 8,4 km/h (2 Bft)
30.06.2013 16:00 18,9 C 58 % 1020,4 hPa 0,0 l/m W-NW 0,25 h 372 W/m 5,7 km/h (1 Bft)
30.06.2013 17:00 17,9 C 64 % 1020,2 hPa 0,0 l/m N 0,00 h 84 W/m 2,4 km/h (1 Bft)
30.06.2013 18:00 17,8 C 66 % 1019,9 hPa 0,0 l/m NW 0,00 h 102 W/m 1,2 km/h (1 Bft)
30.06.2013 19:00 17,4 C 73 % 1019,7 hPa 0,0 l/m N 0,00 h 57 W/m 0,1 km/h (0 Bft)
30.06.2013 20:00 16,4 C 81 % 1019,6 hPa 0,0 l/m N 0,00 h 35 W/m 0,0 km/h (0 Bft)
30.06.2013 21:00 14,5 C 88 % 1019,7 hPa 0,0 l/m N 0,00 h 7 W/m 0,3 km/h (0 Bft)
30.06.2013 22:00 13,4 C 91 % 1019,9 hPa 0,0 l/m NW 0,00 h 0 W/m 1,9 km/h (1 Bft)
30.06.2013 23:00 12,9 C 92 % 1020,3 hPa 0,0 l/m N 0,00 h 0 W/m 2,7 km/h (1 Bft)
Min-Datum _ 28.06.13 26.06.13 24.06.13 - - - - 24.06.13
_ Min-Zeit 06:05 16:15 03:55 - - - - 01:50
Minimum _ 7,3 C 46 % 1016,4 hPa - - - - 0,0 km/h (0 Bft)
Max-Datum _ 30.06.13 28.06.13 26.06.13 29.06.13 - 24.06.13 30.06.13 29.06.13
_ Max-Zeit 15:20 01:20 12:40 18:10 - 09:25 12:55 12:45
Maximum _ 19,5 C 100 % 1026,4 hPa 9,4 l/m - 0,08 h 1123 W/m 30,6 km/h
SW (5 Bft)
Durchschnitt _ 11,9 C 84 % 1021,3 hPa #28,0 l/m SW #15:15 h 184 W/m 6,8 km/h (2 Bft)